createdAt,value
2022-07-29T00:00:48.046Z,99801.88
2022-07-29T00:06:10.582Z,99804.03
2022-07-29T00:11:33.113Z,99793.81
2022-07-29T00:16:56.171Z,99800.72
2022-07-29T00:22:18.487Z,99781.88
2022-07-29T00:27:48.109Z,99762.88
2022-07-29T00:33:11.522Z,99751.34
2022-07-29T00:38:37.448Z,99694.72
2022-07-29T00:43:59.944Z,99714.53
2022-07-29T00:49:22.251Z,99694.84
2022-07-29T00:54:45.273Z,99695.69
2022-07-29T01:00:11.145Z,99698.84
2022-07-29T01:05:48.437Z,99716.38
2022-07-29T01:11:14.795Z,99698.75
2022-07-29T01:16:44.940Z,99677.31
2022-07-29T01:22:29.732Z,99694.00
2022-07-29T01:28:01.605Z,99733.69
2022-07-29T01:33:46.916Z,99737.66
2022-07-29T01:39:37.172Z,99712.38
2022-07-29T01:45:17.321Z,99698.63
2022-07-29T01:50:51.082Z,99721.97
2022-07-29T01:56:15.362Z,99725.22
2022-07-29T02:01:39.223Z,99720.09
2022-07-29T02:07:05.566Z,99712.91
2022-07-29T02:12:30.184Z,99706.91
2022-07-29T02:18:24.346Z,99705.25
2022-07-29T02:23:51.221Z,99712.75
2022-07-29T02:29:15.881Z,99716.53
2022-07-29T02:34:40.161Z,99729.81
2022-07-29T02:40:07.733Z,99739.66
2022-07-29T02:45:31.383Z,99719.78
2022-07-29T02:51:03.181Z,99711.59
2022-07-29T02:56:36.317Z,99723.91
2022-07-29T03:02:00.993Z,99727.44
2022-07-29T03:07:24.663Z,99710.53
2022-07-29T03:12:47.594Z,99698.81
2022-07-29T03:18:09.771Z,99703.69
2022-07-29T03:23:36.768Z,99700.94
2022-07-29T03:28:58.853Z,99715.66
2022-07-29T03:34:21.784Z,99726.94
2022-07-29T03:39:47.535Z,99741.13
2022-07-29T03:45:12.781Z,99750.63
2022-07-29T03:50:36.686Z,99739.09
2022-07-29T03:56:02.152Z,99772.56
2022-07-29T04:01:25.591Z,99779.94
2022-07-29T04:06:48.557Z,99801.03
2022-07-29T04:12:11.511Z,99781.88
2022-07-29T04:17:33.630Z,99785.03
2022-07-29T04:29:06.131Z,99764.81
2022-07-29T04:34:29.002Z,99751.66
2022-07-29T04:39:53.734Z,99764.94
2022-07-29T04:45:22.282Z,99741.22
2022-07-29T04:50:47.597Z,99802.22
2022-07-29T04:56:10.013Z,99738.16
2022-07-29T05:01:32.795Z,99753.94
2022-07-29T05:07:03.260Z,99779.84
2022-07-29T05:12:28.131Z,99746.84
2022-07-29T05:17:59.957Z,99739.34
2022-07-29T05:23:21.932Z,99816.41
2022-07-29T05:28:43.993Z,99818.38
2022-07-29T05:34:06.071Z,99823.03
2022-07-29T05:39:47.009Z,99813.97
2022-07-29T05:45:11.270Z,99809.63
2022-07-29T05:50:33.774Z,99826.50
2022-07-29T05:55:56.238Z,99822.97
2022-07-29T06:01:20.962Z,99831.53
2022-07-29T06:06:43.219Z,99831.44
2022-07-29T06:12:05.629Z,99836.69
2022-07-29T06:17:27.630Z,99838.88
2022-07-29T06:22:49.996Z,99847.84
2022-07-29T06:28:10.651Z,99854.13
2022-07-29T06:33:33.931Z,99856.84
2022-07-29T06:38:56.289Z,99859.97
2022-07-29T06:44:20.187Z,99844.63
2022-07-29T06:49:42.394Z,99858.72
2022-07-29T06:55:05.064Z,99848.31
2022-07-29T07:00:27.958Z,99868.78
2022-07-29T07:05:50.001Z,99854.34
2022-07-29T07:11:12.374Z,99880.34
2022-07-29T07:16:34.644Z,99864.72
2022-07-29T07:21:58.449Z,99890.19
2022-07-29T07:27:21.868Z,99869.03
2022-07-29T07:32:44.996Z,99890.28
2022-07-29T07:38:08.170Z,99878.91
2022-07-29T07:43:30.359Z,99889.00
2022-07-29T07:48:53.807Z,99880.94
